createdAt,value
2023-11-10T00:00:52.339Z,10.40
2023-11-10T00:03:19.395Z,10.40
2023-11-10T00:05:46.580Z,10.40
2023-11-10T00:08:16.050Z,10.40
2023-11-10T00:10:42.895Z,10.40
2023-11-10T00:13:09.803Z,10.40
2023-11-10T00:15:37.000Z,10.40
2023-11-10T00:18:04.200Z,10.40
2023-11-10T00:20:32.988Z,10.30
2023-11-10T00:22:59.999Z,10.30
2023-11-10T00:25:28.477Z,10.30
2023-11-10T00:27:55.419Z,10.30
2023-11-10T00:30:22.533Z,10.30
2023-11-10T00:32:49.584Z,10.30
2023-11-10T00:35:16.535Z,10.30
2023-11-10T00:37:43.389Z,10.30
2023-11-10T00:40:11.048Z,10.40
2023-11-10T00:42:40.338Z,10.30
2023-11-10T00:45:08.197Z,10.30
2023-11-10T00:47:35.090Z,10.30
2023-11-10T00:50:02.035Z,10.40
2023-11-10T00:52:29.580Z,10.40
2023-11-10T00:54:56.437Z,10.40
2023-11-10T00:57:23.333Z,10.50
2023-11-10T00:59:51.640Z,10.60
2023-11-10T01:02:18.601Z,10.50
2023-11-10T01:04:45.488Z,10.50
2023-11-10T01:07:12.584Z,10.60
2023-11-10T01:09:39.480Z,10.60
2023-11-10T01:12:07.234Z,10.60
2023-11-10T01:14:34.328Z,10.60
2023-11-10T01:17:02.644Z,10.50
2023-11-10T01:19:29.563Z,10.40
2023-11-10T01:21:56.507Z,10.30
2023-11-10T01:24:23.355Z,10.20
2023-11-10T01:26:51.374Z,10.20
2023-11-10T01:29:18.380Z,10.10
2023-11-10T01:31:45.516Z,10.00
2023-11-10T01:34:13.957Z,10.00
2023-11-10T01:36:40.942Z,9.80
2023-11-10T01:39:09.553Z,9.80
2023-11-10T01:41:38.955Z,9.80
2023-11-10T01:44:06.514Z,9.70
2023-11-10T01:46:46.927Z,9.70
2023-11-10T01:49:17.041Z,9.60
2023-11-10T01:51:45.812Z,9.60
2023-11-10T01:54:17.233Z,9.60
2023-11-10T01:56:44.753Z,9.60
2023-11-10T01:59:15.266Z,9.50
2023-11-10T02:01:42.941Z,9.50
2023-11-10T02:04:12.758Z,9.50
2023-11-10T02:06:42.226Z,9.50
2023-11-10T02:09:09.732Z,9.50
2023-11-10T02:11:39.785Z,9.50
2023-11-10T02:14:08.605Z,9.50
2023-11-10T02:16:36.609Z,9.40
2023-11-10T02:19:04.149Z,9.40
2023-11-10T02:21:31.186Z,9.40
2023-11-10T02:24:02.827Z,9.40
2023-11-10T02:26:31.065Z,9.40
2023-11-10T02:28:58.046Z,9.40
2023-11-10T02:31:26.211Z,9.40
2023-11-10T02:33:54.447Z,9.40
2023-11-10T02:36:21.455Z,9.40
2023-11-10T02:38:48.924Z,9.40
2023-11-10T02:41:15.997Z,9.40
2023-11-10T02:43:44.255Z,9.40
2023-11-10T02:46:11.207Z,9.40
2023-11-10T02:48:39.573Z,9.30
2023-11-10T02:51:06.917Z,9.30
2023-11-10T02:53:34.070Z,9.30
2023-11-10T02:56:02.310Z,9.30
2023-11-10T02:58:31.765Z,9.40
2023-11-10T03:01:00.343Z,9.30
2023-11-10T03:03:27.386Z,9.20
2023-11-10T03:05:54.595Z,9.20
2023-11-10T03:08:21.506Z,9.20
2023-11-10T03:10:48.382Z,9.20
2023-11-10T03:13:15.667Z,9.20
2023-11-10T03:15:42.770Z,9.20
2023-11-10T03:18:11.541Z,9.20
2023-11-10T03:20:39.479Z,9.20
2023-11-10T03:23:06.442Z,9.20
2023-11-10T03:25:33.301Z,9.30
2023-11-10T03:28:00.569Z,9.30
2023-11-10T03:30:27.485Z,9.30
2023-11-10T03:32:54.512Z,9.40
2023-11-10T03:35:23.471Z,9.40
2023-11-10T03:37:50.351Z,9.40
2023-11-10T03:40:17.217Z,9.50
2023-11-10T03:42:44.214Z,9.50
2023-11-10T03:45:11.872Z,9.60
2023-11-10T03:47:40.244Z,9.60
2023-11-10T03:50:08.091Z,9.60
2023-11-10T03:52:36.409Z,9.60
2023-11-10T03:55:03.659Z,9.60
2023-11-10T03:57:31.789Z,9.60
2023-11-10T03:59:58.770Z,9.60
2023-11-10T04:02:25.626Z,9.60
2023-11-10T04:04:52.518Z,9.50
2023-11-10T04:07:19.617Z,9.40
2023-11-10T04:09:47.988Z,9.30
2023-11-10T04:12:15.310Z,9.30
2023-11-10T04:14:42.291Z,9.20
2023-11-10T04:17:09.211Z,9.10
2023-11-10T04:19:36.067Z,9.10
2023-11-10T04:22:03.003Z,9.10
2023-11-10T04:24:29.947Z,9.10
2023-11-10T04:26:58.275Z,9.10
2023-11-10T04:29:25.654Z,9.10
2023-11-10T04:31:52.796Z,9.10
2023-11-10T04:34:20.584Z,9.10
2023-11-10T04:36:48.013Z,9.20
2023-11-10T04:39:16.610Z,9.20
2023-11-10T04:41:43.579Z,9.10
2023-11-10T04:44:13.258Z,9.10
2023-11-10T04:46:43.966Z,9.10
2023-11-10T04:49:14.213Z,9.10
2023-11-10T04:51:41.203Z,9.00
2023-11-10T04:54:08.182Z,9.00
2023-11-10T04:56:45.141Z,9.00
2023-11-10T04:59:13.761Z,9.00
2023-11-10T05:01:40.853Z,9.00
2023-11-10T05:04:09.128Z,9.00
2023-11-10T05:06:36.266Z,8.90
2023-11-10T05:09:07.700Z,8.90
2023-11-10T05:11:35.357Z,8.90
2023-11-10T05:14:02.305Z,8.90
2023-11-10T05:16:31.105Z,8.90
2023-11-10T05:18:58.790Z,8.90
2023-11-10T05:21:25.878Z,8.90
2023-11-10T05:23:52.706Z,8.90
2023-11-10T05:26:19.722Z,8.80
2023-11-10T05:28:46.660Z,8.80
2023-11-10T05:31:16.209Z,8.80
2023-11-10T05:33:44.861Z,8.80
2023-11-10T05:36:11.783Z,8.80
2023-11-10T05:38:38.749Z,8.80
2023-11-10T05:41:05.769Z,8.80
2023-11-10T05:43:33.321Z,8.80
2023-11-10T05:46:00.688Z,8.80
2023-11-10T05:48:27.706Z,8.80
2023-11-10T05:50:55.980Z,8.70
2023-11-10T05:53:23.224Z,8.70
2023-11-10T05:55:51.824Z,8.70
2023-11-10T05:58:18.778Z,8.80
2023-11-10T06:00:45.673Z,8.80
2023-11-10T06:03:12.743Z,8.80
2023-11-10T06:05:40.640Z,8.80
2023-11-10T06:08:09.885Z,8.70
2023-11-10T06:10:36.848Z,8.70
2023-11-10T06:13:04.593Z,8.70
2023-11-10T06:15:32.592Z,8.70
2023-11-10T06:17:59.649Z,8.60
2023-11-10T06:20:26.535Z,8.60
2023-11-10T06:22:53.454Z,8.60
2023-11-10T06:25:21.717Z,8.60
2023-11-10T06:27:48.652Z,8.60
2023-11-10T06:30:16.170Z,8.50
2023-11-10T06:32:43.206Z,8.50
2023-11-10T06:35:10.617Z,8.50
2023-11-10T06:37:37.605Z,8.40
2023-11-10T06:40:05.142Z,8.40
2023-11-10T06:42:36.385Z,8.40
2023-11-10T06:45:04.154Z,8.40
2023-11-10T06:47:31.441Z,8.40
2023-11-10T06:49:58.393Z,8.30
2023-11-10T06:52:25.370Z,8.30
2023-11-10T06:54:55.318Z,8.30
2023-11-10T06:57:22.635Z,8.30
2023-11-10T06:59:51.077Z,8.20
2023-11-10T07:02:19.888Z,8.30
2023-11-10T07:04:46.799Z,8.30
2023-11-10T07:07:13.780Z,8.30
2023-11-10T07:09:40.761Z,8.50
2023-11-10T07:12:09.354Z,8.80
2023-11-10T07:14:37.547Z,9.10
2023-11-10T07:17:05.937Z,9.40
2023-11-10T07:19:32.843Z,9.40
2023-11-10T07:21:59.803Z,9.30
2023-11-10T07:24:26.768Z,9.20
2023-11-10T07:26:54.000Z,9.10
2023-11-10T07:29:20.977Z,9.00
2023-11-10T07:31:48.395Z,8.90
2023-11-10T07:34:16.671Z,8.80
2023-11-10T07:36:45.559Z,8.80
2023-11-10T07:39:15.397Z,8.80
2023-11-10T07:41:42.276Z,8.80
2023-11-10T07:44:10.917Z,8.70
2023-11-10T07:46:37.935Z,8.60
2023-11-10T07:49:04.953Z,8.60
2023-11-10T07:51:33.398Z,8.50
2023-11-10T07:54:00.301Z,8.50
2023-11-10T07:56:27.177Z,8.50
2023-11-10T07:58:54.113Z,8.50
2023-11-10T08:01:21.078Z,8.50
2023-11-10T08:03:48.248Z,8.50
2023-11-10T08:06:15.182Z,8.50
2023-11-10T08:08:44.118Z,8.50
2023-11-10T08:11:13.950Z,8.30
2023-11-10T08:13:40.865Z,8.60
2023-11-10T08:16:08.175Z,8.60
2023-11-10T08:18:35.144Z,8.60
2023-11-10T08:21:02.026Z,8.70
2023-11-10T08:23:29.088Z,8.60
2023-11-10T08:25:57.294Z,8.80
2023-11-10T08:28:24.363Z,8.80
2023-11-10T08:30:51.868Z,8.90
2023-11-10T08:33:18.915Z,8.90
2023-11-10T08:35:46.439Z,8.90
2023-11-10T08:38:13.502Z,8.80
2023-11-10T08:40:40.764Z,8.90
2023-11-10T08:43:09.096Z,8.90
2023-11-10T08:45:36.206Z,9.00
2023-11-10T08:48:06.871Z,9.00
2023-11-10T08:50:40.561Z,9.10
2023-11-10T08:53:10.304Z,9.20
2023-11-10T08:55:38.915Z,9.60
2023-11-10T08:58:05.972Z,10.00
2023-11-10T09:00:34.792Z,10.40
2023-11-10T09:03:02.135Z,10.60
2023-11-10T09:05:29.534Z,10.70
2023-11-10T09:07:56.869Z,10.60
2023-11-10T09:10:24.606Z,10.50
2023-11-10T09:12:51.653Z,10.30
2023-11-10T09:15:19.296Z,10.20
2023-11-10T09:17:51.946Z,10.10
2023-11-10T09:20:19.259Z,10.20
2023-11-10T09:22:50.978Z,10.00
2023-11-10T09:25:21.906Z,10.00
2023-11-10T09:27:49.450Z,9.90
2023-11-10T09:30:16.617Z,9.90
2023-11-10T09:32:43.738Z,9.90
2023-11-10T09:35:15.024Z,9.90
2023-11-10T09:37:42.029Z,9.80
2023-11-10T09:40:10.732Z,9.80
2023-11-10T09:45:06.934Z,9.80
2023-11-10T09:47:34.014Z,9.80
2023-11-10T09:50:06.606Z,9.80
2023-11-10T09:52:36.496Z,9.90
2023-11-10T09:55:04.186Z,9.90
2023-11-10T09:57:35.870Z,9.90
2023-11-10T10:00:05.372Z,9.90
2023-11-10T10:02:35.173Z,9.90
2023-11-10T10:05:04.171Z,9.90
2023-11-10T10:07:31.057Z,9.90
2023-11-10T10:10:00.413Z,10.00
2023-11-10T10:12:30.514Z,10.00
2023-11-10T10:14:57.718Z,10.10
2023-11-10T10:17:34.405Z,10.20
2023-11-10T10:20:06.750Z,10.30
2023-11-10T10:22:34.060Z,10.30
2023-11-10T10:25:02.422Z,10.30
2023-11-10T10:27:29.437Z,10.30
2023-11-10T10:29:56.529Z,10.30
2023-11-10T10:32:24.343Z,10.40
2023-11-10T10:34:52.628Z,10.50
2023-11-10T10:37:20.625Z,10.70
2023-11-10T10:39:49.404Z,10.90
2023-11-10T10:42:20.539Z,11.00
2023-11-10T10:44:50.247Z,11.40
2023-11-10T10:47:18.459Z,11.70
2023-11-10T10:49:47.038Z,12.10
2023-11-10T10:52:15.467Z,12.40
2023-11-10T10:54:44.926Z,12.40
2023-11-10T10:57:14.668Z,12.30
2023-11-10T10:59:45.784Z,12.10
2023-11-10T11:02:14.434Z,11.90
2023-11-10T11:04:53.923Z,11.60
2023-11-10T11:07:52.178Z,11.40
2023-11-10T11:10:52.982Z,11.20
2023-11-10T11:13:38.978Z,11.00
2023-11-10T11:16:22.700Z,10.90
2023-11-10T11:19:11.098Z,10.70
2023-11-10T11:21:38.252Z,10.60
2023-11-10T11:24:08.608Z,10.50
2023-11-10T11:26:35.729Z,10.50
2023-11-10T11:29:08.585Z,10.50
2023-11-10T11:31:50.091Z,10.50
2023-11-10T11:34:22.709Z,10.50
2023-11-10T11:36:50.588Z,10.50
2023-11-10T11:39:23.783Z,10.50
2023-11-10T11:41:51.481Z,10.50
2023-11-10T11:44:27.746Z,10.60
2023-11-10T11:46:58.170Z,10.60
2023-11-10T11:49:25.722Z,10.60
2023-11-10T11:51:54.111Z,10.70
2023-11-10T11:54:21.055Z,10.70
2023-11-10T11:56:48.081Z,10.80
2023-11-10T11:59:17.337Z,10.80
2023-11-10T12:01:45.754Z,10.90
2023-11-10T12:04:14.968Z,10.90
2023-11-10T12:06:42.870Z,11.00
2023-11-10T12:09:10.331Z,10.90
2023-11-10T12:11:38.092Z,10.90
2023-11-10T12:14:06.848Z,11.00
2023-11-10T12:16:39.009Z,11.10
2023-11-10T12:19:08.228Z,11.20
2023-11-10T12:21:36.812Z,11.30
2023-11-10T12:24:07.584Z,11.40
2023-11-10T12:26:36.476Z,11.40
2023-11-10T12:29:04.306Z,11.50
2023-11-10T12:31:33.980Z,11.60
2023-11-10T12:34:01.744Z,11.70
2023-11-10T12:36:33.013Z,11.80
2023-11-10T12:39:01.480Z,11.80
2023-11-10T12:41:30.190Z,11.90
2023-11-10T12:43:57.173Z,12.00
2023-11-10T12:46:25.090Z,12.00
2023-11-10T12:48:53.993Z,12.00
2023-11-10T12:51:24.919Z,12.00
2023-11-10T12:54:05.276Z,12.00
2023-11-10T12:56:35.868Z,11.90
2023-11-10T12:59:10.668Z,11.90
2023-11-10T13:01:37.755Z,11.80
2023-11-10T13:04:05.568Z,11.80
2023-11-10T13:06:32.759Z,11.70
2023-11-10T13:09:00.455Z,11.60
2023-11-10T13:11:28.785Z,11.50
2023-11-10T13:13:55.778Z,11.40
2023-11-10T13:16:25.769Z,11.30
2023-11-10T13:18:53.624Z,11.30
2023-11-10T13:21:21.337Z,11.30
2023-11-10T13:23:50.162Z,11.30
2023-11-10T13:26:23.232Z,11.20
2023-11-10T13:28:53.454Z,11.20
2023-11-10T13:31:27.370Z,11.20
2023-11-10T13:33:55.664Z,11.20
2023-11-10T13:36:23.112Z,11.20
2023-11-10T13:38:50.202Z,11.20
2023-11-10T13:41:17.304Z,11.20
2023-11-10T13:43:44.321Z,11.20
2023-11-10T13:46:13.551Z,11.10
2023-11-10T13:48:41.948Z,11.10
2023-11-10T13:51:08.829Z,11.10
2023-11-10T13:53:35.665Z,11.10
2023-11-10T13:56:02.729Z,11.10
2023-11-10T13:58:29.654Z,11.10
2023-11-10T14:00:57.034Z,11.10
2023-11-10T14:03:25.576Z,11.10
2023-11-10T14:05:53.047Z,11.10
2023-11-10T14:08:20.334Z,11.00
2023-11-10T14:10:48.502Z,11.00
2023-11-10T14:13:15.602Z,10.90
2023-11-10T14:15:43.846Z,10.90
2023-11-10T14:18:13.772Z,10.90
2023-11-10T14:20:42.316Z,10.90
2023-11-10T14:23:09.172Z,10.90
2023-11-10T14:25:37.974Z,10.90
2023-11-10T14:28:05.166Z,10.90
2023-11-10T14:30:34.420Z,10.90
2023-11-10T14:33:02.547Z,10.90
2023-11-10T14:35:29.520Z,10.90
2023-11-10T14:38:00.161Z,10.90
2023-11-10T14:40:34.184Z,10.80
2023-11-10T14:43:03.627Z,10.80
2023-11-10T14:45:32.242Z,10.70
2023-11-10T14:47:59.207Z,10.60
2023-11-10T14:50:38.406Z,10.70
2023-11-10T14:53:18.355Z,10.70
2023-11-10T14:55:47.916Z,10.80
2023-11-10T14:58:19.085Z,10.60
2023-11-10T15:00:48.388Z,10.60
2023-11-10T15:03:18.987Z,10.60
2023-11-10T15:05:49.847Z,10.60
2023-11-10T15:08:19.760Z,10.60
2023-11-10T15:10:47.720Z,10.60
2023-11-10T15:13:15.630Z,10.60
2023-11-10T15:15:49.622Z,10.60
2023-11-10T15:18:19.416Z,10.60
2023-11-10T15:20:47.589Z,10.60
2023-11-10T15:23:14.529Z,10.50
2023-11-10T15:25:46.677Z,10.50
2023-11-10T15:28:14.299Z,10.50
2023-11-10T15:30:42.067Z,10.50
2023-11-10T15:33:09.358Z,10.40
2023-11-10T15:35:40.931Z,10.40
2023-11-10T15:38:07.878Z,10.40
2023-11-10T15:40:34.773Z,10.40
2023-11-10T15:43:04.560Z,10.40
2023-11-10T15:45:33.017Z,10.40
2023-11-10T15:48:00.153Z,10.40
2023-11-10T15:50:27.721Z,10.40
2023-11-10T15:52:54.686Z,10.30
2023-11-10T15:55:21.695Z,10.30
2023-11-10T15:57:49.761Z,10.20
2023-11-10T16:00:21.927Z,10.20
2023-11-10T16:02:49.695Z,10.10
2023-11-10T16:05:18.262Z,10.10
2023-11-10T16:07:45.515Z,10.10
2023-11-10T16:10:12.651Z,9.90
2023-11-10T16:12:39.953Z,10.00
2023-11-10T16:15:08.925Z,10.00
2023-11-10T16:17:37.391Z,9.90
2023-11-10T16:20:05.494Z,9.90
2023-11-10T16:22:32.989Z,10.00
2023-11-10T16:25:00.168Z,10.00
2023-11-10T16:27:29.413Z,9.90
2023-11-10T16:29:57.984Z,9.90
2023-11-10T16:32:30.892Z,9.90
2023-11-10T16:35:00.261Z,9.90
2023-11-10T16:37:27.605Z,9.90
2023-11-10T16:39:54.651Z,9.90
2023-11-10T16:42:21.632Z,9.90
2023-11-10T16:44:48.448Z,9.90
2023-11-10T16:47:16.890Z,9.90
2023-11-10T16:49:43.906Z,9.90
2023-11-10T16:52:12.201Z,9.90
2023-11-10T16:54:39.238Z,9.90
2023-11-10T16:57:06.176Z,9.80
2023-11-10T16:59:34.359Z,9.90
2023-11-10T17:02:01.611Z,9.90
2023-11-10T17:04:28.717Z,9.90
2023-11-10T17:06:55.775Z,9.90
2023-11-10T17:09:25.687Z,9.90
2023-11-10T17:11:53.379Z,9.80
2023-11-10T17:14:20.374Z,9.80
2023-11-10T17:16:47.469Z,9.80
2023-11-10T17:19:14.526Z,9.80
2023-11-10T17:21:41.496Z,9.70
2023-11-10T17:24:09.007Z,9.70
2023-11-10T17:26:38.111Z,9.70
2023-11-10T17:29:05.908Z,9.70
2023-11-10T17:31:33.064Z,9.70
2023-11-10T17:34:00.278Z,9.60
2023-11-10T17:36:27.245Z,9.70
2023-11-10T17:38:55.113Z,9.60
2023-11-10T17:41:23.190Z,9.70
2023-11-10T17:43:51.466Z,9.70
2023-11-10T17:46:18.418Z,9.70
2023-11-10T17:48:45.323Z,9.60
2023-11-10T17:51:13.796Z,9.70
2023-11-10T17:53:40.747Z,9.60
2023-11-10T17:56:07.890Z,9.60
2023-11-10T17:58:37.325Z,9.60
2023-11-10T18:01:09.132Z,9.60
2023-11-10T18:03:36.154Z,9.60
2023-11-10T18:06:05.298Z,9.50
2023-11-10T18:08:32.799Z,9.60
2023-11-10T18:10:59.651Z,9.60
2023-11-10T18:13:26.942Z,9.60
2023-11-10T18:15:55.036Z,9.60
2023-11-10T18:18:23.410Z,9.60
2023-11-10T18:20:50.496Z,9.60
2023-11-10T18:23:17.524Z,9.60
2023-11-10T18:25:45.101Z,9.60
2023-11-10T18:28:12.941Z,9.60
2023-11-10T18:30:40.098Z,9.60
2023-11-10T18:33:07.659Z,9.50
2023-11-10T18:35:35.996Z,9.50
2023-11-10T18:38:02.913Z,9.50
2023-11-10T18:40:29.838Z,9.50
2023-11-10T18:42:57.282Z,9.40
2023-11-10T18:45:24.630Z,9.40
2023-11-10T18:47:51.712Z,9.40
2023-11-10T18:50:21.756Z,9.40
2023-11-10T18:52:51.176Z,9.30
2023-11-10T18:55:18.604Z,9.30
2023-11-10T18:57:47.311Z,9.30
2023-11-10T19:00:16.178Z,9.20
2023-11-10T19:02:43.917Z,9.20
2023-11-10T19:05:11.016Z,9.20
2023-11-10T19:07:38.180Z,9.20
2023-11-10T19:10:10.171Z,9.20
2023-11-10T19:12:37.235Z,9.20
2023-11-10T19:15:06.426Z,9.10
2023-11-10T19:17:33.462Z,9.10
2023-11-10T19:20:04.372Z,9.10
2023-11-10T19:22:31.630Z,9.10
2023-11-10T19:24:58.892Z,9.10
2023-11-10T19:27:27.129Z,9.10
2023-11-10T19:29:54.053Z,9.10
2023-11-10T19:32:22.448Z,9.10
2023-11-10T19:34:49.613Z,9.10
2023-11-10T19:37:16.586Z,9.10
2023-11-10T19:39:43.775Z,9.10
2023-11-10T19:42:10.848Z,9.10
2023-11-10T19:44:39.169Z,9.10
2023-11-10T19:47:07.884Z,9.10
2023-11-10T19:49:52.991Z,9.20
2023-11-10T19:52:23.736Z,9.20
2023-11-10T19:57:22.759Z,9.20
2023-11-10T20:02:21.310Z,9.20
2023-11-10T20:04:48.259Z,9.20
2023-11-10T20:07:15.127Z,9.10
2023-11-10T20:09:42.959Z,9.10
2023-11-10T20:12:11.667Z,9.20
2023-11-10T20:14:38.879Z,9.20
2023-11-10T20:17:07.101Z,9.20
2023-11-10T20:19:35.206Z,9.20
2023-11-10T20:22:02.894Z,9.10
2023-11-10T20:24:29.877Z,9.10
2023-11-10T20:26:56.923Z,9.10
2023-11-10T20:29:23.880Z,9.10
2023-11-10T20:31:50.809Z,9.10
2023-11-10T20:34:19.184Z,9.10
2023-11-10T20:36:46.039Z,9.10
2023-11-10T20:39:13.162Z,9.10
2023-11-10T20:41:40.530Z,9.10
2023-11-10T20:44:07.996Z,9.10
2023-11-10T20:46:37.657Z,9.10
2023-11-10T20:49:04.665Z,9.10
2023-11-10T20:51:33.510Z,9.10
2023-11-10T20:54:00.816Z,9.10
2023-11-10T20:56:27.854Z,9.10
2023-11-10T20:58:54.785Z,9.10
2023-11-10T21:01:23.607Z,9.00
2023-11-10T21:03:50.681Z,9.10
2023-11-10T21:06:17.635Z,9.10
2023-11-10T21:08:45.846Z,9.10
2023-11-10T21:11:12.807Z,9.10
2023-11-10T21:13:42.096Z,9.00
2023-11-10T21:16:09.074Z,9.00
2023-11-10T21:18:37.698Z,9.00
2023-11-10T21:21:07.980Z,9.00
2023-11-10T21:23:34.940Z,9.00
2023-11-10T21:26:03.672Z,9.00
2023-11-10T21:28:30.720Z,9.00
2023-11-10T21:30:57.658Z,9.00
2023-11-10T21:33:28.209Z,9.00
2023-11-10T21:35:55.201Z,9.00
2023-11-10T21:38:25.292Z,9.00
2023-11-10T21:40:52.849Z,9.00
2023-11-10T21:43:21.088Z,9.00
2023-11-10T21:45:48.568Z,8.90
2023-11-10T21:48:16.714Z,8.90
2023-11-10T21:50:45.305Z,8.90
2023-11-10T21:53:12.732Z,8.90
2023-11-10T21:55:41.611Z,9.00
2023-11-10T21:58:10.030Z,8.90
2023-11-10T22:00:38.375Z,8.90
2023-11-10T22:03:05.532Z,8.90
2023-11-10T22:05:33.174Z,8.90
2023-11-10T22:08:00.040Z,8.90
2023-11-10T22:10:27.017Z,8.90
2023-11-10T22:12:54.763Z,8.90
2023-11-10T22:15:21.643Z,8.90
2023-11-10T22:17:50.220Z,8.90
2023-11-10T22:20:17.161Z,8.90
2023-11-10T22:22:44.012Z,8.90
2023-11-10T22:25:12.042Z,8.90
2023-11-10T22:27:39.402Z,8.90
2023-11-10T22:30:08.785Z,8.90
2023-11-10T22:32:36.618Z,8.90
2023-11-10T22:35:06.412Z,8.90
2023-11-10T22:37:34.198Z,9.00
2023-11-10T22:40:01.403Z,9.00
2023-11-10T22:42:28.403Z,9.00
2023-11-10T22:44:55.315Z,8.90
2023-11-10T22:47:22.275Z,9.00
2023-11-10T22:49:49.266Z,8.90
2023-11-10T22:52:17.528Z,8.70
2023-11-10T22:54:44.434Z,8.90
2023-11-10T22:57:11.338Z,8.90
2023-11-10T22:59:39.145Z,8.90
2023-11-10T23:02:06.210Z,8.80
2023-11-10T23:04:36.267Z,8.80
2023-11-10T23:07:03.560Z,8.80
2023-11-10T23:09:31.882Z,8.80
2023-11-10T23:11:59.033Z,8.70
2023-11-10T23:14:25.929Z,8.70
2023-11-10T23:16:54.920Z,8.70
2023-11-10T23:19:21.926Z,8.60
2023-11-10T23:21:48.817Z,8.60
2023-11-10T23:24:16.151Z,8.60
2023-11-10T23:26:44.632Z,8.60
2023-11-10T23:29:11.574Z,8.60
2023-11-10T23:31:38.523Z,8.70
2023-11-10T23:34:05.539Z,8.70
2023-11-10T23:36:33.159Z,8.70
2023-11-10T23:39:00.199Z,8.70
2023-11-10T23:41:27.737Z,8.70
2023-11-10T23:43:56.284Z,8.70
2023-11-10T23:46:23.245Z,8.70
2023-11-10T23:48:55.584Z,8.70
2023-11-10T23:51:22.693Z,8.70
2023-11-10T23:53:50.977Z,8.70
2023-11-10T23:56:18.397Z,8.70
2023-11-10T23:58:45.454Z,8.60
